Asherton, Texas
Current Conditions -  °F | °C
As of 6:35 AM on Thursday 23 Oct 2014 (Local Time) from KCZT Reporting Station
Overcast Overcast  
Wind Chill: 20°   Ceiling: 7500
Heat Index: 20°   Visibility: 10mi
Dew Point: 18°   Wind: 5mph
Humidity: 88%   Direction: 140°SE
Pressure: 30.07"   Gusts: NA
Location:  28.44°N, 99.76°W
Report Text: KCZT 231135Z AUTO 14004KT 10SM BKN075 OVC095 20/18 A3007 RMK AO2
Loading
Personal Weather Stations






























Interactive Weather Map New forecast layout! Learn more

10-Day Weather Forecast

Advertisements
Track Severe Weather on mobile